Accueil
METAR-TAF:

METAR-TAF

Aéroports :

Aéroport de Shoreham

Brighton, Angleterre

latitude: 50-50N, longitude: 000-17W, altitude: 2 m

Observation

Le bulletin a été fait il y a 1 heure et 35 minutes, à 19:50 UTC
Vent 7 kt de est/nord-est
Température 7°C
Humidité 81%
Pression 1025 hPa
Visibilité 10 km ou plus
pas de nuages en-dessous de 1500 mètres et pas de cumulonimbus.

METAR: EGKA 171950Z 07007KT CAVOK 07/04 Q1025

Heure: 21:25 (21:25 UTC)

Prévision

Le bulletin a été fait il y a 5 heures et 25 minutes, à 16:00 UTC
Prévision valable du 17 à 16 UTC au 17 à 19 UTC
Vent 9 kt de est/nord-est
Visibilité 10 km ou plus
pas de nuages en-dessous de 1500 mètres et pas de cumulonimbus.
Evoluant progressivement
du 17 à 16 UTC au 17 à 19 UTC
Visibilité: 9000 m

TAF: EGKA 171600Z 1716/1719 06009KT CAVOK BECMG 1716/1719 9000 NSC

Observations et prévisions météorologiques de plus de 4000 aéroports (messages METAR et TAF).

Les stations disponibles sont représentées par des disques jaunes et rouges sur la carte.

Passer la souris dessus pour voir le nom de la station.

Cliquer dessus pour voir les observations et prévisions météorologiques.

Pour changer de carte: cliquez sur les boutons verts avec une croix noire pour zoomer, sur le bouton vert avec un tiret pour effectuer un zoom arrière, ou sur les flèches vertes pour les cartes adjacentes.


METAR-TAF: